KRMG/RMG METAR and TAF weather

Enter ICAO airport designator
Station Type Date Time Source
KRMG METAR 2019/07/15 19:53 UTC NOAA

KRMG 151953Z AUTO 21004KT 10SM SCT055 33/19 A3011 RMK AO2 SLP185 T03280194


Station Type Date Time Source
KRMG Decoded METAR 2019/07/15 19:53 UTC NOAA

ROME R. B. RUSSELL AIRPORT, GA, United States (KRMG) 34-21N 085-10W 193M
Jul 15, 2019 - 03:53 PM EDT / 2019.07.15 1953 UTC
Wind: from the SSW (210 degrees) at 5 MPH (4 KT):0
Visibility: 10 mile(s):0
Sky conditions: partly cloudy
Temperature: 91.0 F (32.8 C)
Heat index: 94.3 F (34.6 C):1
Dew Point: 66.9 F (19.4 C)
Relative Humidity: 45%
Pressure (altimeter): 30.11 in. Hg (1019 hPa)
ob: KRMG 151953Z AUTO 21004KT 10SM SCT055 33/19 A3011 RMK AO2 SLP185 T03280194
cycle: 20

Station Type Date Time Source
KRMG TAF UTC NOAA

Error!

Example: see airport list